Darstellungsparameter: Aktuell verwendete Einstellungen:
Skalierung der Graphiken ... ?
xyx+y,   Skalierungsfaktor:      Skalierung: Modus: x, Faktor: 1
Darstellungszeitraum ... ?
Vom - - bis: - -   Zeitraum: 02.12.2021 - 03.12.2021
Min/Max/Avg-Anzeige ... ?
Zeige MMA aktuell
Zeige MMA Monat
Zeige MMA alles
Zeige --A aktuell
Zeige --A Monat
Zeige --A alles
Keine MMA-Anzeige
MMA:
Keine MMA-Graphiken
MMA-Basis: 02.12.2021 - 03.12.2021
Quicknavigation für Darstellung... ?
Tage:      1T, 2T, 3T, 5T -1T -2T -3T -5T +1T +2T +3T +5T
Wochen: 1W, 2W, 3W -1W -2W -3W +1W +2W +3W
Monate: 1M, 3M, 6M -1M -3M -6M +1M +3M +6M
Jahre:    1J, 3J, 5J, 10J -1J -3J -5J -10J +1J +3J +5J +10J
Nutze für die Darstellung ... ?
Originaldaten oder Mittelwerte auf ...
Stundenbasis Tagesbasis Wochenbasis
Monatsbasis Jahresbasis      Datenbasis: Original-Daten
Darstellen als:
Statistik (Auto) Statistik J:M      Darstellung:
Zur Graphik,    zurück zur Übersicht aller Sensoren.
 
Tabellarische Datenbersicht: ?
 
Sensor: Nr:Datum:Temp:Feuchte:Taupunkt:
Aussen-T/F 1 02-12-2021 00:00:00 5.4 C 94 % 4.51 C
2 02-12-2021 00:05:00 5.4 C 94 % 4.51 C
3 02-12-2021 00:10:00 5.4 C 94 % 4.51 C
4 02-12-2021 00:15:00 5.3 C 94 % 4.41 C
5 02-12-2021 00:20:00 5.3 C 94 % 4.41 C
6 02-12-2021 00:25:00 5.3 C 94 % 4.41 C
7 02-12-2021 00:30:00 5.3 C 94 % 4.41 C
8 02-12-2021 00:35:00 5.3 C 94 % 4.41 C
9 02-12-2021 00:40:00 5.3 C 94 % 4.41 C
10 02-12-2021 00:45:00 5.3 C 94 % 4.41 C
11 02-12-2021 00:50:00 5.3 C 94 % 4.41 C
12 02-12-2021 00:55:00 5.3 C 94 % 4.41 C
13 02-12-2021 01:00:00 5.3 C 94 % 4.41 C
14 02-12-2021 01:05:00 5.3 C 94 % 4.41 C
15 02-12-2021 01:10:00 5.3 C 94 % 4.41 C
16 02-12-2021 01:15:00 5.2 C 94 % 4.32 C
17 02-12-2021 01:20:00 5.2 C 94 % 4.32 C
18 02-12-2021 01:25:00 5.2 C 94 % 4.32 C
19 02-12-2021 01:30:00 5.2 C 94 % 4.32 C
20 02-12-2021 01:35:00 5.1 C 94 % 4.22 C
21 02-12-2021 01:40:00 5.1 C 94 % 4.22 C
22 02-12-2021 01:45:00 5.1 C 94 % 4.22 C
23 02-12-2021 01:50:00 5.1 C 94 % 4.22 C
24 02-12-2021 01:55:00 4.9 C 93 % 3.87 C
25 02-12-2021 02:00:00 4.9 C 93 % 3.87 C
Sensor: Nr:Datum:Temp:Feuchte:Taupunkt:
Aussen-T/F 26 02-12-2021 02:05:00 4.8 C 93 % 3.77 C
27 02-12-2021 02:10:00 4.8 C 93 % 3.77 C
28 02-12-2021 02:15:00 4.8 C 93 % 3.77 C
29 02-12-2021 02:20:00 4.7 C 93 % 3.67 C
30 02-12-2021 02:25:00 4.7 C 93 % 3.67 C
31 02-12-2021 02:30:00 4.6 C 93 % 3.57 C
32 02-12-2021 02:35:00 4.6 C 93 % 3.57 C
33 02-12-2021 02:40:00 4.6 C 93 % 3.57 C
34 02-12-2021 02:45:00 4.6 C 93 % 3.57 C
35 02-12-2021 02:50:00 4.5 C 93 % 3.47 C
36 02-12-2021 02:55:00 4.5 C 93 % 3.47 C
37 02-12-2021 03:00:00 4.4 C 94 % 3.52 C
38 02-12-2021 03:05:00 4.5 C 94 % 3.62 C
39 02-12-2021 03:10:00 4.5 C 94 % 3.62 C
40 02-12-2021 03:15:00 4.5 C 94 % 3.62 C
41 02-12-2021 03:20:00 4.5 C 94 % 3.62 C
42 02-12-2021 03:25:00 4.5 C 94 % 3.62 C
43 02-12-2021 03:30:00 4.5 C 94 % 3.62 C
44 02-12-2021 03:35:00 4.4 C 94 % 3.52 C
45 02-12-2021 03:40:00 4.5 C 94 % 3.62 C
46 02-12-2021 03:45:00 4.5 C 94 % 3.62 C
47 02-12-2021 03:50:00 4.6 C 94 % 3.72 C
48 02-12-2021 03:55:00 4.6 C 94 % 3.72 C
49 02-12-2021 04:00:00 4.6 C 94 % 3.72 C
50 02-12-2021 04:05:00 4.6 C 94 % 3.72 C
Sensor: Nr:Datum:Temp:Feuchte:Taupunkt:
Aussen-T/F 51 02-12-2021 04:10:00 4.6 C 94 % 3.72 C
52 02-12-2021 04:15:00 4.6 C 94 % 3.72 C
53 02-12-2021 04:20:00 4.6 C 94 % 3.72 C
54 02-12-2021 04:25:00 4.7 C 94 % 3.82 C
55 02-12-2021 04:30:00 4.7 C 94 % 3.82 C
56 02-12-2021 04:35:00 4.7 C 94 % 3.82 C
57 02-12-2021 04:40:00 4.6 C 94 % 3.72 C
58 02-12-2021 04:45:00 4.6 C 94 % 3.72 C
59 02-12-2021 04:50:00 4.6 C 94 % 3.72 C
60 02-12-2021 04:55:00 4.6 C 94 % 3.72 C
61 02-12-2021 05:00:00 4.5 C 94 % 3.62 C
62 02-12-2021 05:05:00 4.5 C 94 % 3.62 C
63 02-12-2021 05:10:00 4.5 C 94 % 3.62 C
64 02-12-2021 05:15:00 4.5 C 94 % 3.62 C
65 02-12-2021 05:20:00 4.5 C 94 % 3.62 C
66 02-12-2021 05:25:00 4.5 C 94 % 3.62 C
67 02-12-2021 05:30:00 4.5 C 94 % 3.62 C
68 02-12-2021 05:35:00 4.5 C 94 % 3.62 C
69 02-12-2021 05:40:00 4.5 C 94 % 3.62 C
70 02-12-2021 05:45:00 4.4 C 95 % 3.67 C
71 02-12-2021 05:50:00 4.5 C 95 % 3.77 C
72 02-12-2021 05:55:00 4.4 C 95 % 3.67 C
73 02-12-2021 06:00:00 4.4 C 95 % 3.67 C
74 02-12-2021 06:05:00 4.4 C 94 % 3.52 C
75 02-12-2021 06:10:00 4.4 C 95 % 3.67 C
Sensor: Nr:Datum:Temp:Feuchte:Taupunkt:
Aussen-T/F 76 02-12-2021 06:15:00 4.4 C 95 % 3.67 C
77 02-12-2021 06:20:00 4.4 C 95 % 3.67 C
78 02-12-2021 06:25:00 4.4 C 95 % 3.67 C
79 02-12-2021 06:30:00 4.3 C 95 % 3.57 C
80 02-12-2021 06:35:00 4.3 C 95 % 3.57 C
81 02-12-2021 06:40:00 4.3 C 95 % 3.57 C
82 02-12-2021 06:45:00 4.3 C 95 % 3.57 C
83 02-12-2021 06:50:00 4.2 C 95 % 3.47 C
84 02-12-2021 06:55:00 4.2 C 95 % 3.47 C
85 02-12-2021 07:00:00 4.2 C 95 % 3.47 C
86 02-12-2021 07:05:00 4.2 C 95 % 3.47 C
87 02-12-2021 07:10:00 4.2 C 95 % 3.47 C
88 02-12-2021 07:15:00 4.2 C 95 % 3.47 C
89 02-12-2021 07:20:00 4.2 C 95 % 3.47 C
90 02-12-2021 07:25:00 4.1 C 95 % 3.37 C
91 02-12-2021 07:30:00 4.1 C 95 % 3.37 C
92 02-12-2021 07:35:00 4.1 C 95 % 3.37 C
93 02-12-2021 07:40:00 4.1 C 95 % 3.37 C
94 02-12-2021 07:45:00 4 C 95 % 3.27 C
95 02-12-2021 07:50:00 4 C 95 % 3.27 C
96 02-12-2021 07:55:00 4.1 C 95 % 3.37 C
97 02-12-2021 08:00:00 4.1 C 95 % 3.37 C
98 02-12-2021 08:05:00 4 C 95 % 3.27 C
99 02-12-2021 08:10:00 4 C 95 % 3.27 C
100 02-12-2021 08:15:00 3.9 C 95 % 3.17 C
Sensor: Nr:Datum:Temp:Feuchte:Taupunkt:
Aussen-T/F 101 02-12-2021 08:20:00 3.9 C 95 % 3.17 C
102 02-12-2021 08:25:00 3.9 C 95 % 3.17 C
103 02-12-2021 08:30:00 3.9 C 95 % 3.17 C
104 02-12-2021 08:35:00 3.9 C 95 % 3.17 C
105 02-12-2021 08:40:00 4 C 95 % 3.27 C
106 02-12-2021 08:45:00 4 C 95 % 3.27 C
107 02-12-2021 08:50:00 4 C 95 % 3.27 C
108 02-12-2021 08:55:00 4.1 C 95 % 3.37 C
109 02-12-2021 09:00:00 4.1 C 95 % 3.37 C
110 02-12-2021 09:05:00 4.1 C 95 % 3.37 C
111 02-12-2021 09:10:00 4.1 C 95 % 3.37 C
112 02-12-2021 09:15:00 4.1 C 95 % 3.37 C
113 02-12-2021 09:20:00 4.1 C 95 % 3.37 C
114 02-12-2021 09:25:00 4.1 C 95 % 3.37 C
115 02-12-2021 09:30:00 4.2 C 95 % 3.47 C
116 02-12-2021 09:35:00 4.2 C 95 % 3.47 C
117 02-12-2021 09:40:00 4.1 C 94 % 3.22 C
118 02-12-2021 09:45:00 4 C 94 % 3.12 C
119 02-12-2021 09:50:00 4 C 94 % 3.12 C
120 02-12-2021 09:55:00 3.9 C 94 % 3.02 C
121 02-12-2021 10:00:00 3.9 C 94 % 3.02 C
122 02-12-2021 10:05:00 3.8 C 94 % 2.93 C
123 02-12-2021 10:10:00 3.8 C 94 % 2.93 C
124 02-12-2021 10:15:00 3.8 C 94 % 2.93 C
125 02-12-2021 10:20:00 3.8 C 94 % 2.93 C
Sensor: Nr:Datum:Temp:Feuchte:Taupunkt:
Aussen-T/F 126 02-12-2021 10:25:00 3.8 C 94 % 2.93 C
127 02-12-2021 10:30:00 3.9 C 94 % 3.02 C
128 02-12-2021 10:35:00 4 C 94 % 3.12 C
129 02-12-2021 10:40:00 4.1 C 94 % 3.22 C
130 02-12-2021 10:45:00 4.2 C 94 % 3.32 C
131 02-12-2021 10:50:00 4.2 C 94 % 3.32 C
132 02-12-2021 10:55:00 4.2 C 94 % 3.32 C
133 02-12-2021 11:00:00 4.2 C 94 % 3.32 C
134 02-12-2021 11:05:00 4.1 C 93 % 3.07 C
135 02-12-2021 11:10:00 3.8 C 92 % 2.62 C
136 02-12-2021 11:15:00 3.7 C 93 % 2.68 C
137 02-12-2021 11:20:00 3.7 C 93 % 2.68 C
138 02-12-2021 11:25:00 3.7 C 93 % 2.68 C
139 02-12-2021 11:30:00 3.7 C 93 % 2.68 C
140 02-12-2021 11:35:00 3.7 C 93 % 2.68 C
141 02-12-2021 11:40:00 3.8 C 93 % 2.77 C
142 02-12-2021 11:45:00 3.8 C 93 % 2.77 C
143 02-12-2021 11:50:00 3.8 C 93 % 2.77 C
144 02-12-2021 11:55:00 3.8 C 93 % 2.77 C
145 02-12-2021 12:00:00 3.8 C 93 % 2.77 C
146 02-12-2021 12:05:00 3.8 C 93 % 2.77 C
147 02-12-2021 12:10:00 3.8 C 93 % 2.77 C
148 02-12-2021 12:15:00 3.9 C 93 % 2.87 C
149 02-12-2021 12:20:00 4.1 C 93 % 3.07 C
150 02-12-2021 12:25:00 4.2 C 93 % 3.17 C
Sensor: Nr:Datum:Temp:Feuchte:Taupunkt:
Aussen-T/F 151 02-12-2021 12:30:00 4.2 C 93 % 3.17 C
152 02-12-2021 12:35:00 4.2 C 92 % 3.02 C
153 02-12-2021 12:40:00 4.2 C 92 % 3.02 C
154 02-12-2021 12:45:00 4.3 C 92 % 3.12 C
155 02-12-2021 12:50:00 4.3 C 92 % 3.12 C
156 02-12-2021 12:55:00 4.3 C 91 % 2.96 C
157 02-12-2021 13:00:00 4.2 C 91 % 2.87 C
158 02-12-2021 13:05:00 4.2 C 91 % 2.87 C
159 02-12-2021 13:10:00 4.1 C 90 % 2.61 C
160 02-12-2021 13:15:00 3.9 C 90 % 2.41 C
161 02-12-2021 13:20:00 3.9 C 91 % 2.57 C
162 02-12-2021 13:25:00 4 C 91 % 2.67 C
163 02-12-2021 13:30:00 4.1 C 90 % 2.61 C
164 02-12-2021 13:35:00 4.1 C 89 % 2.45 C
165 02-12-2021 13:40:00 4.3 C 89 % 2.65 C
166 02-12-2021 13:45:00 4.4 C 89 % 2.75 C
167 02-12-2021 13:50:00 4.4 C 88 % 2.59 C
168 02-12-2021 13:55:00 4.4 C 87 % 2.43 C
169 02-12-2021 14:00:00 4.3 C 86 % 2.17 C
170 02-12-2021 14:05:00 4.3 C 87 % 2.33 C
171 02-12-2021 14:10:00 4.2 C 87 % 2.23 C
172 02-12-2021 14:15:00 4.2 C 87 % 2.23 C
173 02-12-2021 14:20:00 4.3 C 87 % 2.33 C
174 02-12-2021 14:25:00 4.3 C 87 % 2.33 C
175 02-12-2021 14:30:00 4.3 C 87 % 2.33 C
Sensor: Nr:Datum:Temp:Feuchte:Taupunkt:
Aussen-T/F 176 02-12-2021 14:35:00 4.3 C 86 % 2.17 C
177 02-12-2021 14:40:00 4.3 C 86 % 2.17 C
178 02-12-2021 14:45:00 4.3 C 86 % 2.17 C
179 02-12-2021 14:50:00 4.2 C 85 % 1.91 C
180 02-12-2021 14:55:00 4.1 C 85 % 1.81 C
181 02-12-2021 15:00:00 4.1 C 85 % 1.81 C
182 02-12-2021 15:05:00 4 C 85 % 1.71 C
183 02-12-2021 15:10:00 4 C 85 % 1.71 C
184 02-12-2021 15:15:00 4.1 C 84 % 1.65 C
185 02-12-2021 15:20:00 4.1 C 85 % 1.81 C
186 02-12-2021 15:25:00 4.2 C 85 % 1.91 C
187 02-12-2021 15:30:00 4.2 C 84 % 1.74 C
188 02-12-2021 15:35:00 4.2 C 84 % 1.74 C
189 02-12-2021 15:40:00 4.2 C 83 % 1.58 C
190 02-12-2021 15:45:00 4.3 C 83 % 1.67 C
191 02-12-2021 15:50:00 4.3 C 83 % 1.67 C
192 02-12-2021 15:55:00 4.4 C 84 % 1.94 C
193 02-12-2021 16:00:00 4.3 C 84 % 1.84 C
194 02-12-2021 16:05:00 4.2 C 84 % 1.74 C
195 02-12-2021 16:10:00 4.1 C 84 % 1.65 C
196 02-12-2021 16:15:00 4.1 C 84 % 1.65 C
197 02-12-2021 16:20:00 4.1 C 84 % 1.65 C
198 02-12-2021 16:25:00 3.9 C 84 % 1.45 C
199 02-12-2021 16:30:00 3.9 C 85 % 1.61 C
200 02-12-2021 16:35:00 3.9 C 85 % 1.61 C
Sensor: Nr:Datum:Temp:Feuchte:Taupunkt:
Aussen-T/F 201 02-12-2021 16:40:00 3.8 C 85 % 1.52 C
202 02-12-2021 16:45:00 3.8 C 86 % 1.68 C
203 02-12-2021 16:50:00 3.7 C 86 % 1.58 C
204 02-12-2021 16:55:00 3.6 C 86 % 1.48 C
205 02-12-2021 17:00:00 3.6 C 87 % 1.64 C
206 02-12-2021 17:05:00 3.6 C 87 % 1.64 C
207 02-12-2021 17:10:00 3.5 C 87 % 1.55 C
208 02-12-2021 17:15:00 3.4 C 88 % 1.61 C
209 02-12-2021 17:20:00 3.4 C 88 % 1.61 C
210 02-12-2021 17:25:00 3.4 C 88 % 1.61 C
211 02-12-2021 17:30:00 3.4 C 88 % 1.61 C
212 02-12-2021 17:35:00 3.4 C 89 % 1.76 C
213 02-12-2021 17:40:00 3.4 C 89 % 1.76 C
214 02-12-2021 17:45:00 3.3 C 89 % 1.67 C
215 02-12-2021 17:50:00 3.3 C 89 % 1.67 C
216 02-12-2021 17:55:00 3.3 C 89 % 1.67 C
217 02-12-2021 18:00:00 3.3 C 89 % 1.67 C
218 02-12-2021 18:05:00 3.3 C 89 % 1.67 C
219 02-12-2021 18:10:00 3.3 C 89 % 1.67 C
220 02-12-2021 18:15:00 3.4 C 88 % 1.61 C
221 02-12-2021 18:20:00 3.5 C 88 % 1.7 C
222 02-12-2021 18:25:00 3.6 C 88 % 1.8 C
223 02-12-2021 18:30:00 3.5 C 88 % 1.7 C
224 02-12-2021 18:35:00 3.5 C 88 % 1.7 C
225 02-12-2021 18:40:00 3.5 C 88 % 1.7 C
Sensor: Nr:Datum:Temp:Feuchte:Taupunkt:
Aussen-T/F 226 02-12-2021 18:45:00 3.5 C 88 % 1.7 C
227 02-12-2021 18:50:00 3.4 C 88 % 1.61 C
228 02-12-2021 18:55:00 3.4 C 88 % 1.61 C
229 02-12-2021 19:00:00 3.5 C 88 % 1.7 C
230 02-12-2021 19:05:00 3.6 C 87 % 1.64 C
231 02-12-2021 19:10:00 3.6 C 87 % 1.64 C
232 02-12-2021 19:15:00 3.7 C 86 % 1.58 C
233 02-12-2021 19:20:00 3.7 C 86 % 1.58 C
234 02-12-2021 19:25:00 3.7 C 86 % 1.58 C
235 02-12-2021 19:30:00 3.7 C 86 % 1.58 C
236 02-12-2021 19:35:00 3.7 C 86 % 1.58 C
237 02-12-2021 19:40:00 3.7 C 85 % 1.42 C
238 02-12-2021 19:45:00 3.7 C 85 % 1.42 C
239 02-12-2021 19:50:00 3.7 C 86 % 1.58 C
240 02-12-2021 19:55:00 3.6 C 86 % 1.48 C
241 02-12-2021 20:00:00 3.4 C 86 % 1.29 C
242 02-12-2021 20:05:00 3.4 C 87 % 1.45 C
243 02-12-2021 20:10:00 3.4 C 87 % 1.45 C
244 02-12-2021 20:15:00 3.4 C 87 % 1.45 C
245 02-12-2021 20:20:00 3.4 C 87 % 1.45 C
246 02-12-2021 20:25:00 3.4 C 88 % 1.61 C
247 02-12-2021 20:30:00 3.4 C 87 % 1.45 C
248 02-12-2021 20:35:00 3.4 C 87 % 1.45 C
249 02-12-2021 20:40:00 3.4 C 87 % 1.45 C
250 02-12-2021 20:45:00 3.4 C 88 % 1.61 C
Sensor: Nr:Datum:Temp:Feuchte:Taupunkt:
Aussen-T/F 251 02-12-2021 20:50:00 3.4 C 89 % 1.76 C
252 02-12-2021 20:55:00 3.4 C 89 % 1.76 C
253 02-12-2021 21:00:00 3.3 C 89 % 1.67 C
254 02-12-2021 21:05:00 3.3 C 89 % 1.67 C
255 02-12-2021 21:10:00 3.3 C 90 % 1.82 C
256 02-12-2021 21:15:00 3.2 C 90 % 1.72 C
257 02-12-2021 21:20:00 3.2 C 90 % 1.72 C
258 02-12-2021 21:25:00 3.2 C 90 % 1.72 C
259 02-12-2021 21:30:00 3.1 C 90 % 1.62 C
260 02-12-2021 21:35:00 3.1 C 90 % 1.62 C
261 02-12-2021 21:40:00 3.1 C 90 % 1.62 C
262 02-12-2021 21:45:00 3 C 90 % 1.52 C
263 02-12-2021 21:50:00 2.9 C 90 % 1.43 C
264 02-12-2021 21:55:00 2.9 C 90 % 1.43 C
265 02-12-2021 22:00:00 2.8 C 90 % 1.33 C
266 02-12-2021 22:05:00 2.8 C 90 % 1.33 C
267 02-12-2021 22:10:00 2.8 C 90 % 1.33 C
268 02-12-2021 22:15:00 2.8 C 90 % 1.33 C
269 02-12-2021 22:20:00 2.8 C 90 % 1.33 C
270 02-12-2021 22:25:00 2.8 C 90 % 1.33 C
271 02-12-2021 22:30:00 2.8 C 90 % 1.33 C
272 02-12-2021 22:35:00 2.7 C 90 % 1.23 C
273 02-12-2021 22:40:00 2.7 C 90 % 1.23 C
274 02-12-2021 22:45:00 2.7 C 90 % 1.23 C
275 02-12-2021 22:50:00 2.7 C 90 % 1.23 C
Sensor: Nr:Datum:Temp:Feuchte:Taupunkt:
Aussen-T/F 276 02-12-2021 22:55:00 2.7 C 90 % 1.23 C
277 02-12-2021 23:00:00 2.6 C 89 % 0.97 C
278 02-12-2021 23:05:00 2.4 C 89 % 0.78 C
279 02-12-2021 23:10:00 2.3 C 90 % 0.83 C
280 02-12-2021 23:15:00 2.3 C 90 % 0.83 C
281 02-12-2021 23:20:00 2.2 C 90 % 0.73 C
282 02-12-2021 23:25:00 2.2 C 90 % 0.73 C
283 02-12-2021 23:30:00 2.1 C 90 % 0.64 C
284 02-12-2021 23:35:00 2.1 C 90 % 0.64 C
285 02-12-2021 23:40:00 1.9 C 90 % 0.44 C
286 02-12-2021 23:45:00 1.9 C 90 % 0.44 C
287 02-12-2021 23:50:00 1.8 C 90 % 0.34 C
288 02-12-2021 23:55:00 1.7 C 91 % 0.39 C
289 03-12-2021 00:00:00 1.6 C 91 % 0.29 C
290 03-12-2021 00:05:00 1.6 C 91 % 0.29 C
291 03-12-2021 00:10:00 1.6 C 92 % 0.44 C
292 03-12-2021 00:15:00 1.7 C 92 % 0.54 C
293 03-12-2021 00:20:00 1.7 C 92 % 0.54 C
294 03-12-2021 00:25:00 1.7 C 92 % 0.54 C
295 03-12-2021 00:30:00 1.7 C 92 % 0.54 C
296 03-12-2021 00:35:00 1.6 C 91 % 0.29 C
297 03-12-2021 00:40:00 1.5 C 91 % 0.19 C
298 03-12-2021 00:45:00 1.4 C 91 % 0.1 C
299 03-12-2021 00:50:00 1.4 C 92 % 0.25 C
300 03-12-2021 00:55:00 1.4 C 92 % 0.25 C
Sensor: Nr:Datum:Temp:Feuchte:Taupunkt:
Aussen-T/F 301 03-12-2021 01:00:00 1.4 C 92 % 0.25 C
302 03-12-2021 01:05:00 1.4 C 92 % 0.25 C
303 03-12-2021 01:10:00 1.3 C 92 % 0.15 C
304 03-12-2021 01:15:00 1.3 C 92 % 0.15 C
305 03-12-2021 01:20:00 1.2 C 92 % 0.05 C
306 03-12-2021 01:25:00 1.2 C 93 % 0.2 C
307 03-12-2021 01:30:00 1.3 C 93 % 0.3 C
308 03-12-2021 01:35:00 1.3 C 93 % 0.3 C
309 03-12-2021 01:40:00 1.3 C 93 % 0.3 C
310 03-12-2021 01:45:00 1.4 C 93 % 0.4 C
311 03-12-2021 01:50:00 1.4 C 93 % 0.4 C
312 03-12-2021 01:55:00 1.4 C 93 % 0.4 C
313 03-12-2021 02:00:00 1.3 C 93 % 0.3 C
314 03-12-2021 02:05:00 1.3 C 93 % 0.3 C
315 03-12-2021 02:10:00 1.3 C 93 % 0.3 C
316 03-12-2021 02:15:00 1.3 C 93 % 0.3 C
317 03-12-2021 02:20:00 1.2 C 93 % 0.2 C
318 03-12-2021 02:25:00 1.2 C 93 % 0.2 C
319 03-12-2021 02:30:00 1.2 C 93 % 0.2 C
320 03-12-2021 02:35:00 1.2 C 93 % 0.2 C
321 03-12-2021 02:40:00 1.2 C 93 % 0.2 C
322 03-12-2021 02:45:00 1.2 C 94 % 0.34 C
323 03-12-2021 02:50:00 1.3 C 94 % 0.44 C
324 03-12-2021 02:55:00 1.3 C 93 % 0.3 C
325 03-12-2021 03:00:00 1.3 C 93 % 0.3 C
Sensor: Nr:Datum:Temp:Feuchte:Taupunkt:
Aussen-T/F 326 03-12-2021 03:05:00 1.3 C 92 % 0.15 C
327 03-12-2021 03:10:00 1.3 C 92 % 0.15 C
328 03-12-2021 03:15:00 1.2 C 91 % -0.1 C
329 03-12-2021 03:20:00 1.1 C 92 % -0.05 C
330 03-12-2021 03:25:00 0.9 C 91 % -0.4 C
331 03-12-2021 03:30:00 0.8 C 91 % -0.5 C
332 03-12-2021 03:35:00 0.7 C 91 % -0.6 C
333 03-12-2021 03:40:00 0.6 C 91 % -0.7 C
334 03-12-2021 03:45:00 0.5 C 92 % -0.65 C
335 03-12-2021 03:50:00 0.4 C 92 % -0.74 C
336 03-12-2021 03:55:00 0.4 C 92 % -0.74 C
337 03-12-2021 04:00:00 0.3 C 92 % -0.84 C
338 03-12-2021 04:05:00 0.2 C 92 % -0.94 C
339 03-12-2021 04:10:00 0.2 C 92 % -0.94 C
340 03-12-2021 04:15:00 0.2 C 93 % -0.79 C
341 03-12-2021 04:20:00 0.2 C 93 % -0.79 C
342 03-12-2021 04:25:00 0.2 C 93 % -0.79 C
343 03-12-2021 04:30:00 0.1 C 93 % -0.89 C
344 03-12-2021 04:35:00 0.1 C 93 % -0.89 C
345 03-12-2021 04:40:00 0 C 93 % -0.99 C
346 03-12-2021 04:45:00 -0.1 C 93 % -1.09 C
347 03-12-2021 04:50:00 -0.1 C 93 % -1.09 C
348 03-12-2021 04:55:00 -0.1 C 93 % -1.09 C
349 03-12-2021 05:00:00 -0.2 C 93 % -1.19 C
350 03-12-2021 05:05:00 -0.2 C 93 % -1.19 C
Sensor: Nr:Datum:Temp:Feuchte:Taupunkt:
Aussen-T/F 351 03-12-2021 05:10:00 -0.1 C 94 % -0.95 C
352 03-12-2021 05:15:00 0 C 94 % -0.85 C
353 03-12-2021 05:20:00 0.1 C 94 % -0.75 C
354 03-12-2021 05:25:00 0.1 C 94 % -0.75 C
355 03-12-2021 05:30:00 0.1 C 94 % -0.75 C
356 03-12-2021 05:35:00 0.2 C 94 % -0.65 C
357 03-12-2021 05:40:00 0.3 C 94 % -0.55 C
358 03-12-2021 05:45:00 0.3 C 94 % -0.55 C
359 03-12-2021 05:50:00 0.4 C 94 % -0.45 C
360 03-12-2021 05:55:00 0.4 C 94 % -0.45 C
361 03-12-2021 06:00:00 0.4 C 94 % -0.45 C
362 03-12-2021 06:05:00 0.4 C 94 % -0.45 C
363 03-12-2021 06:10:00 0.3 C 94 % -0.55 C
364 03-12-2021 06:15:00 0.3 C 94 % -0.55 C
365 03-12-2021 06:20:00 0.3 C 94 % -0.55 C
366 03-12-2021 06:25:00 0.2 C 93 % -0.79 C
367 03-12-2021 06:30:00 0.1 C 93 % -0.89 C
368 03-12-2021 06:35:00 0.1 C 94 % -0.75 C
369 03-12-2021 06:40:00 0.1 C 94 % -0.75 C
370 03-12-2021 06:45:00 0.1 C 94 % -0.75 C
371 03-12-2021 06:50:00 0.1 C 94 % -0.75 C
372 03-12-2021 06:55:00 0.1 C 94 % -0.75 C
373 03-12-2021 07:00:00 0 C 94 % -0.85 C
374 03-12-2021 07:05:00 0 C 94 % -0.85 C
375 03-12-2021 07:10:00 0.1 C 94 % -0.75 C
Sensor: Nr:Datum:Temp:Feuchte:Taupunkt:
Aussen-T/F 376 03-12-2021 07:15:00 0.1 C 94 % -0.75 C
377 03-12-2021 07:20:00 0.3 C 95 % -0.4 C
378 03-12-2021 07:25:00 0.4 C 95 % -0.31 C
379 03-12-2021 07:30:00 0.6 C 95 % -0.11 C
380 03-12-2021 07:35:00 0.7 C 95 % -0.01 C
381 03-12-2021 07:40:00 0.8 C 95 % 0.09 C
382 03-12-2021 07:45:00 0.9 C 95 % 0.19 C
383 03-12-2021 07:50:00 1 C 95 % 0.29 C
384 03-12-2021 07:55:00 1.2 C 95 % 0.49 C
385 03-12-2021 08:00:00 1.2 C 95 % 0.49 C
386 03-12-2021 08:05:00 1.3 C 95 % 0.59 C
387 03-12-2021 08:10:00 1.3 C 95 % 0.59 C
388 03-12-2021 08:15:00 1.3 C 95 % 0.59 C
389 03-12-2021 08:20:00 1.4 C 94 % 0.54 C
390 03-12-2021 08:25:00 1.5 C 94 % 0.64 C
391 03-12-2021 08:30:00 1.6 C 94 % 0.74 C
392 03-12-2021 08:35:00 1.7 C 94 % 0.84 C
393 03-12-2021 08:40:00 1.8 C 93 % 0.79 C
394 03-12-2021 08:45:00 1.9 C 93 % 0.89 C
395 03-12-2021 08:50:00 1.9 C 93 % 0.89 C
396 03-12-2021 08:55:00 2 C 92 % 0.84 C
397 03-12-2021 09:00:00 2.1 C 92 % 0.94 C
398 03-12-2021 09:05:00 2.1 C 92 % 0.94 C
399 03-12-2021 09:10:00 2.1 C 92 % 0.94 C
400 03-12-2021 09:15:00 2.1 C 92 % 0.94 C
Sensor: Nr:Datum:Temp:Feuchte:Taupunkt:
Aussen-T/F 401 03-12-2021 09:20:00 2.2 C 91 % 0.89 C
402 03-12-2021 09:25:00 2.3 C 91 % 0.99 C
403 03-12-2021 09:30:00 2.3 C 90 % 0.83 C
404 03-12-2021 09:35:00 2.3 C 90 % 0.83 C
405 03-12-2021 09:40:00 2.4 C 90 % 0.93 C
406 03-12-2021 09:45:00 2.5 C 89 % 0.88 C
407 03-12-2021 09:50:00 2.6 C 88 % 0.82 C
408 03-12-2021 09:55:00 2.7 C 88 % 0.92 C
409 03-12-2021 10:00:00 2.8 C 88 % 1.02 C
410 03-12-2021 10:05:00 2.9 C 87 % 0.96 C
411 03-12-2021 10:10:00 2.9 C 87 % 0.96 C
412 03-12-2021 10:15:00 3 C 87 % 1.05 C
413 03-12-2021 10:20:00 3.1 C 87 % 1.15 C
414 03-12-2021 10:25:00 3.1 C 86 % 0.99 C
415 03-12-2021 10:30:00 3.1 C 86 % 0.99 C
416 03-12-2021 10:35:00 3.1 C 87 % 1.15 C
417 03-12-2021 10:40:00 3.1 C 86 % 0.99 C
418 03-12-2021 10:45:00 3.2 C 86 % 1.09 C
419 03-12-2021 10:50:00 3.2 C 86 % 1.09 C
420 03-12-2021 10:55:00 3.3 C 85 % 1.03 C
421 03-12-2021 11:00:00 3.3 C 85 % 1.03 C
422 03-12-2021 11:05:00 3.4 C 85 % 1.12 C
423 03-12-2021 11:10:00 3.4 C 85 % 1.12 C
424 03-12-2021 11:15:00 3.5 C 85 % 1.22 C
425 03-12-2021 11:20:00 3.6 C 84 % 1.16 C
Sensor: Nr:Datum:Temp:Feuchte:Taupunkt:
Aussen-T/F 426 03-12-2021 11:25:00 3.6 C 84 % 1.16 C
427 03-12-2021 11:30:00 3.7 C 84 % 1.25 C
428 03-12-2021 11:35:00 3.7 C 83 % 1.09 C
429 03-12-2021 11:40:00 3.7 C 83 % 1.09 C
430 03-12-2021 11:45:00 3.7 C 83 % 1.09 C
431 03-12-2021 11:50:00 3.7 C 83 % 1.09 C
432 03-12-2021 11:55:00 3.7 C 83 % 1.09 C
433 03-12-2021 12:00:00 3.7 C 83 % 1.09 C
434 03-12-2021 12:05:00 3.8 C 83 % 1.19 C
435 03-12-2021 12:10:00 3.8 C 83 % 1.19 C
436 03-12-2021 12:15:00 3.8 C 83 % 1.19 C
437 03-12-2021 12:20:00 3.8 C 83 % 1.19 C
438 03-12-2021 12:25:00 3.8 C 83 % 1.19 C
439 03-12-2021 12:30:00 3.8 C 83 % 1.19 C
440 03-12-2021 12:35:00 3.8 C 83 % 1.19 C
441 03-12-2021 12:40:00 3.8 C 83 % 1.19 C
442 03-12-2021 12:45:00 3.8 C 83 % 1.19 C
443 03-12-2021 12:50:00 3.8 C 83 % 1.19 C
444 03-12-2021 12:55:00 3.8 C 83 % 1.19 C
445 03-12-2021 13:00:00 3.8 C 83 % 1.19 C
446 03-12-2021 13:05:00 3.8 C 83 % 1.19 C
447 03-12-2021 13:10:00 3.9 C 83 % 1.28 C
448 03-12-2021 13:15:00 3.8 C 83 % 1.19 C
449 03-12-2021 13:20:00 3.8 C 83 % 1.19 C
450 03-12-2021 13:25:00 3.8 C 83 % 1.19 C
Sensor: Nr:Datum:Temp:Feuchte:Taupunkt:
Aussen-T/F 451 03-12-2021 13:30:00 3.9 C 83 % 1.28 C
452 03-12-2021 13:35:00 3.9 C 83 % 1.28 C
453 03-12-2021 13:40:00 3.9 C 83 % 1.28 C
454 03-12-2021 13:45:00 3.9 C 82 % 1.12 C
455 03-12-2021 13:50:00 3.9 C 82 % 1.12 C
456 03-12-2021 13:55:00 4 C 82 % 1.21 C
457 03-12-2021 14:00:00 4 C 82 % 1.21 C
458 03-12-2021 14:05:00 4.1 C 83 % 1.48 C
459 03-12-2021 14:10:00 4.1 C 82 % 1.31 C
460 03-12-2021 14:15:00 4 C 82 % 1.21 C
461 03-12-2021 14:20:00 4 C 82 % 1.21 C
462 03-12-2021 14:25:00 4 C 82 % 1.21 C
463 03-12-2021 14:30:00 4 C 82 % 1.21 C
464 03-12-2021 14:35:00 3.9 C 82 % 1.12 C
465 03-12-2021 14:40:00 3.9 C 82 % 1.12 C
466 03-12-2021 14:45:00 3.9 C 83 % 1.28 C
467 03-12-2021 14:50:00 3.9 C 83 % 1.28 C
468 03-12-2021 14:55:00 3.9 C 83 % 1.28 C
469 03-12-2021 15:00:00 3.9 C 83 % 1.28 C
470 03-12-2021 15:05:00 3.9 C 83 % 1.28 C
471 03-12-2021 15:10:00 3.9 C 83 % 1.28 C
472 03-12-2021 15:15:00 3.8 C 82 % 1.02 C
473 03-12-2021 15:20:00 3.8 C 83 % 1.19 C
474 03-12-2021 15:25:00 3.8 C 83 % 1.19 C
475 03-12-2021 15:30:00 3.8 C 83 % 1.19 C
Sensor: Nr:Datum:Temp:Feuchte:Taupunkt:
Aussen-T/F 476 03-12-2021 15:35:00 3.8 C 83 % 1.19 C
477 03-12-2021 15:40:00 3.8 C 83 % 1.19 C
478 03-12-2021 15:45:00 3.8 C 83 % 1.19 C
479 03-12-2021 15:50:00 3.8 C 83 % 1.19 C
480 03-12-2021 15:55:00 3.8 C 83 % 1.19 C
481 03-12-2021 16:00:00 3.8 C 83 % 1.19 C
482 03-12-2021 16:05:00 3.8 C 83 % 1.19 C
483 03-12-2021 16:10:00 3.8 C 83 % 1.19 C
484 03-12-2021 16:15:00 3.8 C 83 % 1.19 C
485 03-12-2021 16:20:00 3.8 C 83 % 1.19 C
486 03-12-2021 16:25:00 3.8 C 83 % 1.19 C
487 03-12-2021 16:30:00 3.8 C 83 % 1.19 C
488 03-12-2021 16:35:00 3.8 C 83 % 1.19 C
489 03-12-2021 16:40:00 3.8 C 83 % 1.19 C
490 03-12-2021 16:45:00 3.8 C 83 % 1.19 C
491 03-12-2021 16:50:00 3.8 C 83 % 1.19 C
492 03-12-2021 16:55:00 3.8 C 83 % 1.19 C
493 03-12-2021 17:00:00 3.8 C 84 % 1.35 C
494 03-12-2021 17:05:00 3.8 C 84 % 1.35 C
495 03-12-2021 17:10:00 3.7 C 84 % 1.25 C
496 03-12-2021 17:15:00 3.7 C 84 % 1.25 C
497 03-12-2021 17:20:00 3.7 C 84 % 1.25 C
498 03-12-2021 17:25:00 3.7 C 85 % 1.42 C
499 03-12-2021 17:30:00 3.7 C 85 % 1.42 C
500 03-12-2021 17:35:00 3.7 C 85 % 1.42 C
Sensor: Nr:Datum:Temp:Feuchte:Taupunkt:
Aussen-T/F 501 03-12-2021 17:40:00 3.7 C 85 % 1.42 C
502 03-12-2021 17:45:00 3.7 C 85 % 1.42 C
503 03-12-2021 17:50:00 3.7 C 85 % 1.42 C
504 03-12-2021 17:55:00 3.7 C 85 % 1.42 C
505 03-12-2021 18:00:00 3.7 C 85 % 1.42 C
506 03-12-2021 18:05:00 3.7 C 84 % 1.25 C
507 03-12-2021 18:10:00 3.8 C 84 % 1.35 C
508 03-12-2021 18:15:00 3.8 C 83 % 1.19 C
509 03-12-2021 18:20:00 3.9 C 83 % 1.28 C
510 03-12-2021 18:25:00 3.9 C 83 % 1.28 C
511 03-12-2021 18:30:00 3.9 C 83 % 1.28 C
512 03-12-2021 18:35:00 4 C 83 % 1.38 C
513 03-12-2021 18:40:00 4 C 83 % 1.38 C
514 03-12-2021 18:45:00 4 C 83 % 1.38 C
515 03-12-2021 18:50:00 4 C 83 % 1.38 C
516 03-12-2021 18:55:00 4 C 83 % 1.38 C
517 03-12-2021 19:00:00 4.1 C 83 % 1.48 C
518 03-12-2021 19:05:00 4 C 83 % 1.38 C
519 03-12-2021 19:10:00 4 C 83 % 1.38 C
520 03-12-2021 19:15:00 4 C 83 % 1.38 C
521 03-12-2021 19:20:00 4 C 84 % 1.55 C
522 03-12-2021 19:25:00 4 C 84 % 1.55 C
523 03-12-2021 19:30:00 4 C 83 % 1.38 C
524 03-12-2021 19:35:00 3.9 C 84 % 1.45 C
525 03-12-2021 19:40:00 4 C 84 % 1.55 C
Sensor: Nr:Datum:Temp:Feuchte:Taupunkt:
Aussen-T/F 526 03-12-2021 19:45:00 3.9 C 85 % 1.61 C
527 03-12-2021 19:50:00 3.9 C 86 % 1.78 C
528 03-12-2021 19:55:00 3.8 C 85 % 1.52 C
529 03-12-2021 20:00:00 3.8 C 86 % 1.68 C
530 03-12-2021 20:05:00 3.8 C 86 % 1.68 C
531 03-12-2021 20:10:00 3.8 C 87 % 1.84 C
532 03-12-2021 20:15:00 3.8 C 87 % 1.84 C
533 03-12-2021 20:20:00 3.7 C 86 % 1.58 C
534 03-12-2021 20:25:00 3.7 C 86 % 1.58 C
535 03-12-2021 20:30:00 3.8 C 86 % 1.68 C
536 03-12-2021 20:35:00 3.8 C 86 % 1.68 C
537 03-12-2021 20:40:00 3.8 C 86 % 1.68 C
538 03-12-2021 20:45:00 3.9 C 86 % 1.78 C
539 03-12-2021 20:50:00 3.9 C 86 % 1.78 C
540 03-12-2021 20:55:00 3.9 C 86 % 1.78 C
541 03-12-2021 21:00:00 3.9 C 86 % 1.78 C
542 03-12-2021 21:05:00 3.9 C 86 % 1.78 C
543 03-12-2021 21:10:00 4 C 86 % 1.88 C
544 03-12-2021 21:15:00 4 C 86 % 1.88 C
545 03-12-2021 21:20:00 4.1 C 85 % 1.81 C
546 03-12-2021 21:25:00 4.1 C 86 % 1.97 C
547 03-12-2021 21:30:00 4.1 C 86 % 1.97 C
548 03-12-2021 21:35:00 4.1 C 86 % 1.97 C
549 03-12-2021 21:40:00 4.1 C 86 % 1.97 C
550 03-12-2021 21:45:00 4.2 C 86 % 2.07 C
Sensor: Nr:Datum:Temp:Feuchte:Taupunkt:
Aussen-T/F 551 03-12-2021 21:50:00 4.2 C 86 % 2.07 C
552 03-12-2021 21:55:00 4.2 C 86 % 2.07 C
553 03-12-2021 22:00:00 4.2 C 86 % 2.07 C
554 03-12-2021 22:05:00 4.2 C 86 % 2.07 C
555 03-12-2021 22:10:00 4.2 C 86 % 2.07 C
556 03-12-2021 22:15:00 4.3 C 86 % 2.17 C
557 03-12-2021 22:20:00 4.3 C 86 % 2.17 C
558 03-12-2021 22:25:00 4.3 C 86 % 2.17 C
559 03-12-2021 22:30:00 4.3 C 86 % 2.17 C
560 03-12-2021 22:35:00 4.4 C 86 % 2.27 C
561 03-12-2021 22:40:00 4.4 C 86 % 2.27 C
562 03-12-2021 22:45:00 4.4 C 86 % 2.27 C
563 03-12-2021 22:50:00 4.4 C 86 % 2.27 C
564 03-12-2021 22:55:00 4.4 C 86 % 2.27 C
565 03-12-2021 23:00:00 4.4 C 86 % 2.27 C
566 03-12-2021 23:05:00 4.4 C 86 % 2.27 C
567 03-12-2021 23:10:00 4.4 C 86 % 2.27 C
568 03-12-2021 23:15:00 4.4 C 87 % 2.43 C
569 03-12-2021 23:20:00 4.4 C 86 % 2.27 C
570 03-12-2021 23:25:00 4.4 C 87 % 2.43 C
571 03-12-2021 23:30:00 4.4 C 87 % 2.43 C
572 03-12-2021 23:35:00 4.5 C 87 % 2.53 C
573 03-12-2021 23:40:00 4.5 C 87 % 2.53 C
574 03-12-2021 23:45:00 4.5 C 86 % 2.37 C
575 03-12-2021 23:50:00 4.6 C 86 % 2.47 C
Sensor: Nr:Datum:Temp:Feuchte:Taupunkt:
Aussen-T/F 576 03-12-2021 23:55:00 4.6 C 86 % 2.47 C

Legende:
   Min
   Max


Maximal/Minimal-Werte vom 02.12.2021 - 03.12.2021

Sensor Min Max Avg
Temp
(Aussen-T/F)
-0.2 °C
03-12-2021  05:00:00
5.4 °C
02-12-2021  00:00:00
3.33 °C
Feuchte
(Aussen-T/F)
82 %
03-12-2021  13:45:00
95 %
02-12-2021  05:45:00
89.5 %
Taupunkt
(Aussen-T/F)
-1.19 C
03-12-2021  05:00:00
4.51 C
02-12-2021  00:00:00
1.75 C

Die Daten stammen von einer Davis Vantage Pro 2 Wetter-Station und werden unter Linux mit der Software wview2wettercgi und aufbereitet. Alle Angaben erfolgen ohne Gewähr für ihre Vollständigkeit oder Richtigkeit.
Kontakt: Rainer Krienke krienke@uni-koblenz.de . Meine Webseiten an der Uni Koblenz oder privat.
Version: $Revision: 0.78 $